createdAt,value
2017-11-30T00:00:41.262Z,12.85
2017-11-30T00:03:08.714Z,13.82
2017-11-30T00:05:36.179Z,13.65
2017-11-30T00:08:03.618Z,13.82
2017-11-30T00:10:31.079Z,15.25
2017-11-30T00:12:58.551Z,15.35
2017-11-30T00:15:26.015Z,15.48
2017-11-30T00:17:53.459Z,14.13
2017-11-30T00:20:20.923Z,15.93
2017-11-30T00:22:48.374Z,16.37
2017-11-30T00:25:15.827Z,16.40
2017-11-30T00:27:43.284Z,16.30
2017-11-30T00:30:10.738Z,16.80
2017-11-30T00:32:38.189Z,17.05
2017-11-30T00:35:05.651Z,18.92
2017-11-30T00:37:33.096Z,18.30
2017-11-30T00:40:00.555Z,15.27
2017-11-30T00:42:39.674Z,15.32
2017-11-30T00:45:07.131Z,16.85
2017-11-30T00:47:34.574Z,14.85
2017-11-30T00:50:02.037Z,15.75
2017-11-30T00:52:29.494Z,14.02
2017-11-30T00:54:56.950Z,13.57
2017-11-30T00:57:24.396Z,13.40
2017-11-30T00:59:51.866Z,14.45
2017-11-30T01:02:19.358Z,13.13
2017-11-30T01:04:46.910Z,13.75
2017-11-30T01:07:14.366Z,14.10
2017-11-30T01:09:41.819Z,13.23
2017-11-30T01:12:09.387Z,14.48
2017-11-30T01:14:36.839Z,15.65
2017-11-30T01:17:04.296Z,14.80
2017-11-30T01:19:31.743Z,15.68
2017-11-30T01:21:59.199Z,17.42
2017-11-30T01:24:26.678Z,15.00
2017-11-30T01:26:54.131Z,17.35
2017-11-30T01:29:21.691Z,17.35
2017-11-30T01:31:49.153Z,16.83
2017-11-30T01:34:16.597Z,15.15
2017-11-30T01:36:44.060Z,15.90
2017-11-30T01:39:11.507Z,16.85
2017-11-30T01:41:38.970Z,14.85
2017-11-30T01:44:06.423Z,14.45
2017-11-30T01:46:33.879Z,16.40
2017-11-30T01:49:01.343Z,15.35
2017-11-30T01:51:28.797Z,15.60
2017-11-30T01:53:56.243Z,17.42
2017-11-30T01:56:23.702Z,19.60
2017-11-30T01:58:51.157Z,22.60
2017-11-30T02:01:18.637Z,23.02
2017-11-30T02:03:46.068Z,23.10
2017-11-30T02:06:13.610Z,22.25
2017-11-30T02:08:41.064Z,21.27
2017-11-30T02:11:08.534Z,21.10
2017-11-30T02:13:35.979Z,23.48
2017-11-30T02:16:03.431Z,23.58
2017-11-30T02:18:30.927Z,21.23
2017-11-30T02:20:58.375Z,22.80
2017-11-30T02:23:25.838Z,21.17
2017-11-30T02:25:53.291Z,24.10
2017-11-30T02:28:20.746Z,24.15
2017-11-30T02:30:48.381Z,22.87
2017-11-30T02:33:15.843Z,22.92
2017-11-30T02:35:43.334Z,21.73
2017-11-30T02:38:10.790Z,22.30
2017-11-30T02:40:38.237Z,22.62
2017-11-30T02:43:05.702Z,21.55
2017-11-30T02:45:33.152Z,19.15
2017-11-30T02:48:00.612Z,21.20
2017-11-30T02:50:28.060Z,22.17
2017-11-30T02:52:55.515Z,19.62
2017-11-30T02:55:22.967Z,21.40
2017-11-30T02:57:50.534Z,22.30
2017-11-30T03:00:17.978Z,21.58
2017-11-30T03:02:45.438Z,21.55
2017-11-30T03:05:12.883Z,19.85
2017-11-30T03:07:40.340Z,19.35
2017-11-30T03:10:07.790Z,21.25
2017-11-30T03:12:35.282Z,22.13
2017-11-30T03:15:02.731Z,19.75
2017-11-30T03:17:30.298Z,21.02
2017-11-30T03:19:57.751Z,18.37
2017-11-30T03:22:25.319Z,18.25
2017-11-30T03:24:52.763Z,18.75
2017-11-30T03:27:20.212Z,17.42
2017-11-30T03:29:47.788Z,18.23
2017-11-30T03:32:15.240Z,18.67
2017-11-30T03:34:42.701Z,16.90
2017-11-30T03:37:10.147Z,14.35
2017-11-30T03:39:37.611Z,16.45
2017-11-30T03:42:05.059Z,15.07
2017-11-30T03:44:32.514Z,16.73
2017-11-30T03:46:59.969Z,18.98
2017-11-30T03:49:27.427Z,15.02
2017-11-30T03:51:54.897Z,14.93
2017-11-30T03:54:22.348Z,15.25
2017-11-30T03:56:49.794Z,15.73
2017-11-30T03:59:17.256Z,14.52
2017-11-30T04:01:44.704Z,14.70
2017-11-30T04:04:12.179Z,13.48
2017-11-30T04:06:39.633Z,14.80
2017-11-30T04:09:07.087Z,11.80
2017-11-30T04:11:34.534Z,10.80
2017-11-30T04:14:02.001Z,11.10
2017-11-30T04:16:29.453Z,13.35
2017-11-30T04:18:56.915Z,11.82
2017-11-30T04:21:24.478Z,13.77
2017-11-30T04:23:51.939Z,13.43
2017-11-30T04:26:19.392Z,14.43
2017-11-30T04:28:46.847Z,13.85
2017-11-30T04:31:14.294Z,15.25
2017-11-30T04:33:41.863Z,16.67
2017-11-30T04:36:09.320Z,16.05
2017-11-30T04:38:36.767Z,15.48
2017-11-30T04:41:04.229Z,14.25
2017-11-30T04:43:31.681Z,13.18
2017-11-30T04:45:59.139Z,13.38
2017-11-30T04:48:26.594Z,11.73
2017-11-30T04:50:54.058Z,12.98
2017-11-30T04:53:21.505Z,13.52
2017-11-30T04:55:48.968Z,12.77
2017-11-30T04:58:16.527Z,13.30
2017-11-30T05:00:44.096Z,14.73
2017-11-30T05:03:11.546Z,14.52
2017-11-30T05:05:39.007Z,10.18
2017-11-30T05:08:06.566Z,11.15
2017-11-30T05:10:34.019Z,7.10
2017-11-30T05:13:01.467Z,7.40
2017-11-30T05:15:29.036Z,5.82
2017-11-30T05:17:56.483Z,6.65
2017-11-30T05:20:23.931Z,5.22
2017-11-30T05:22:51.376Z,4.70
2017-11-30T05:25:18.829Z,6.32
2017-11-30T05:27:48.822Z,3.78
2017-11-30T05:30:17.054Z,5.07
2017-11-30T05:32:44.490Z,5.30
2017-11-30T05:35:11.947Z,5.30
2017-11-30T05:37:39.395Z,5.20
2017-11-30T05:40:06.847Z,7.60
2017-11-30T05:42:34.309Z,6.68
2017-11-30T05:45:01.794Z,6.32
2017-11-30T05:47:29.234Z,7.05
2017-11-30T05:49:56.690Z,6.55
2017-11-30T05:52:24.134Z,6.07
2017-11-30T05:54:51.574Z,7.22
2017-11-30T05:57:19.074Z,6.68
2017-11-30T05:59:46.520Z,6.95
2017-11-30T06:02:13.972Z,7.60
2017-11-30T06:04:41.421Z,7.40
2017-11-30T06:07:08.879Z,6.93
2017-11-30T06:09:36.356Z,8.23
2017-11-30T06:12:03.823Z,8.02
2017-11-30T06:14:31.272Z,9.65
2017-11-30T06:16:58.726Z,8.40
2017-11-30T06:19:26.168Z,7.53
2017-11-30T06:21:53.626Z,10.10
2017-11-30T06:24:21.095Z,8.73
2017-11-30T06:26:48.561Z,10.05
2017-11-30T06:29:16.003Z,7.93
2017-11-30T06:31:43.459Z,10.55
2017-11-30T06:34:10.905Z,10.40
2017-11-30T06:36:38.372Z,9.25
2017-11-30T06:39:05.819Z,8.98
2017-11-30T06:41:33.274Z,10.50
2017-11-30T06:44:00.729Z,9.98
2017-11-30T06:46:28.178Z,10.05
2017-11-30T06:48:55.623Z,9.25
2017-11-30T06:51:23.085Z,9.75
2017-11-30T06:53:50.529Z,14.95
2017-11-30T06:56:17.978Z,20.55
2017-11-30T06:58:46.194Z,12.13
2017-11-30T07:01:13.658Z,9.70
2017-11-30T07:03:41.101Z,8.27
2017-11-30T07:06:08.549Z,12.75
2017-11-30T07:08:36.003Z,9.30
2017-11-30T07:11:03.457Z,14.00
2017-11-30T07:13:30.917Z,10.65
2017-11-30T07:15:58.368Z,14.10
2017-11-30T07:18:25.847Z,14.93
2017-11-30T07:20:53.293Z,17.15
2017-11-30T07:23:20.775Z,11.12
2017-11-30T07:25:48.335Z,8.70
2017-11-30T07:28:15.795Z,6.72
2017-11-30T07:30:43.235Z,10.27
2017-11-30T07:33:10.698Z,11.82
2017-11-30T07:35:38.146Z,9.75
2017-11-30T07:38:05.612Z,8.65
2017-11-30T07:40:33.076Z,10.55
2017-11-30T07:43:00.525Z,10.35
2017-11-30T07:45:27.971Z,10.18
2017-11-30T07:47:55.433Z,10.77
2017-11-30T07:50:22.882Z,10.30
2017-11-30T07:52:50.356Z,10.68
2017-11-30T07:55:17.798Z,8.38
2017-11-30T07:57:45.253Z,8.90
2017-11-30T08:00:12.708Z,10.10
2017-11-30T08:02:40.158Z,9.38
2017-11-30T08:05:07.608Z,7.75
2017-11-30T08:07:35.047Z,7.28
2017-11-30T08:10:02.482Z,8.10
2017-11-30T08:12:30.718Z,8.68
2017-11-30T08:14:58.186Z,9.20
2017-11-30T08:17:25.635Z,8.82
2017-11-30T08:19:53.226Z,9.75
2017-11-30T08:22:20.762Z,8.38
2017-11-30T08:24:48.214Z,7.78
2017-11-30T08:27:15.663Z,9.05
2017-11-30T08:29:43.115Z,9.18
2017-11-30T08:32:10.573Z,8.10
2017-11-30T08:34:38.015Z,7.95
2017-11-30T08:37:05.462Z,7.55
2017-11-30T08:39:32.921Z,8.27
2017-11-30T08:42:00.412Z,5.25
2017-11-30T08:44:27.862Z,5.97
2017-11-30T08:46:55.310Z,5.97
2017-11-30T08:49:22.763Z,5.10
2017-11-30T08:51:50.211Z,6.72
2017-11-30T08:54:17.669Z,5.90
2017-11-30T08:56:45.116Z,6.53
2017-11-30T08:59:12.566Z,6.22
2017-11-30T09:01:40.075Z,7.40
2017-11-30T09:04:07.531Z,6.43
2017-11-30T09:06:35.087Z,6.00
2017-11-30T09:09:02.538Z,6.22
2017-11-30T09:11:29.983Z,6.87
2017-11-30T09:13:57.445Z,5.03
2017-11-30T09:16:24.888Z,5.57
2017-11-30T09:18:52.336Z,5.30
2017-11-30T09:21:19.774Z,4.70
2017-11-30T09:23:47.279Z,5.07
2017-11-30T09:26:14.727Z,4.45
2017-11-30T09:28:42.177Z,10.80
2017-11-30T09:31:09.631Z,4.40
2017-11-30T09:33:37.075Z,3.25
2017-11-30T09:36:04.531Z,3.75
2017-11-30T09:38:31.978Z,3.85
2017-11-30T09:40:59.428Z,4.30
2017-11-30T09:43:26.929Z,4.07
2017-11-30T09:45:54.394Z,4.03
2017-11-30T09:48:21.829Z,3.80
2017-11-30T09:50:49.290Z,3.42
2017-11-30T09:53:16.734Z,3.90
2017-11-30T09:55:44.185Z,4.40
2017-11-30T09:58:11.622Z,4.65
2017-11-30T10:00:39.075Z,4.10
2017-11-30T10:03:06.582Z,3.90
2017-11-30T10:05:34.031Z,4.10
2017-11-30T10:08:01.500Z,5.00
2017-11-30T10:10:28.950Z,5.47
2017-11-30T10:12:56.396Z,4.97
2017-11-30T10:15:23.842Z,5.80
2017-11-30T10:17:51.290Z,5.70
2017-11-30T10:20:18.738Z,5.22
2017-11-30T10:22:46.184Z,6.10
2017-11-30T10:25:14.401Z,8.23
2017-11-30T10:27:41.870Z,7.40
2017-11-30T10:30:09.328Z,10.40
2017-11-30T10:32:36.778Z,9.80
2017-11-30T10:35:04.236Z,10.80
2017-11-30T10:37:31.679Z,10.43
2017-11-30T10:39:59.156Z,12.15
2017-11-30T10:42:26.601Z,18.85
2017-11-30T10:44:54.059Z,14.07
2017-11-30T10:47:21.515Z,11.85
2017-11-30T10:49:48.967Z,11.32
2017-11-30T10:52:16.445Z,13.75
2017-11-30T10:54:43.890Z,12.75
2017-11-30T10:57:11.351Z,10.88
2017-11-30T10:59:38.819Z,12.13
2017-11-30T11:02:06.279Z,11.85
2017-11-30T11:04:33.731Z,10.27
2017-11-30T11:07:01.187Z,12.40
2017-11-30T11:09:28.634Z,12.35
2017-11-30T11:11:56.094Z,12.43
2017-11-30T11:14:23.553Z,15.85
2017-11-30T11:16:51.003Z,15.45
2017-11-30T11:19:18.455Z,13.52
2017-11-30T11:21:45.910Z,10.93
2017-11-30T11:24:13.368Z,13.55
2017-11-30T11:26:40.833Z,11.32
2017-11-30T11:29:08.282Z,13.38
2017-11-30T11:31:35.851Z,10.48
2017-11-30T11:34:03.302Z,12.50
2017-11-30T11:36:30.759Z,10.68
2017-11-30T11:38:58.204Z,13.20
2017-11-30T11:41:25.670Z,12.48
2017-11-30T11:43:53.130Z,11.88
2017-11-30T11:46:20.582Z,11.80
2017-11-30T11:48:48.027Z,15.95
2017-11-30T11:51:15.509Z,13.75
2017-11-30T11:53:42.952Z,11.38
2017-11-30T11:56:10.409Z,13.90
2017-11-30T11:58:37.875Z,12.32
2017-11-30T12:01:05.322Z,11.75
2017-11-30T12:03:32.895Z,13.60
2017-11-30T12:06:00.338Z,12.75
2017-11-30T12:08:27.795Z,12.48
2017-11-30T12:10:55.247Z,16.30
2017-11-30T12:13:22.825Z,11.35
2017-11-30T12:15:50.267Z,14.02
2017-11-30T12:18:17.826Z,13.18
2017-11-30T12:20:45.279Z,11.50
2017-11-30T12:23:12.733Z,11.82
2017-11-30T12:25:40.215Z,11.32
2017-11-30T12:28:07.654Z,10.43
2017-11-30T12:30:35.111Z,10.88
2017-11-30T12:33:02.565Z,9.70
2017-11-30T12:35:30.016Z,11.02
2017-11-30T12:37:57.472Z,9.40
2017-11-30T12:40:24.922Z,9.15
2017-11-30T12:42:52.387Z,10.10
2017-11-30T12:45:19.830Z,10.40
2017-11-30T12:47:47.288Z,10.40
2017-11-30T12:50:14.739Z,11.52
2017-11-30T12:52:42.198Z,9.40
2017-11-30T12:55:09.691Z,10.50
2017-11-30T12:57:37.136Z,9.52
2017-11-30T13:00:04.589Z,11.00
2017-11-30T13:02:32.161Z,9.90
2017-11-30T13:04:59.617Z,11.23
2017-11-30T13:07:27.066Z,9.00
2017-11-30T13:09:54.528Z,11.35
2017-11-30T13:12:22.080Z,10.82
2017-11-30T13:14:49.542Z,11.27
2017-11-30T13:17:16.984Z,12.73
2017-11-30T13:19:44.444Z,10.88
2017-11-30T13:22:11.899Z,12.80
2017-11-30T13:24:39.365Z,9.30
2017-11-30T13:27:06.821Z,19.23
2017-11-30T13:29:34.277Z,11.23
2017-11-30T13:32:01.745Z,8.40
2017-11-30T13:34:29.204Z,14.70
2017-11-30T13:36:56.653Z,32.28
2017-11-30T13:39:24.204Z,15.73
2017-11-30T13:41:51.664Z,24.27
2017-11-30T13:44:19.113Z,22.27
2017-11-30T13:46:46.573Z,14.70
2017-11-30T13:49:14.142Z,70.95
2017-11-30T13:51:41.588Z,7.60
2017-11-30T13:54:09.053Z,12.65
2017-11-30T13:56:36.608Z,11.15
2017-11-30T13:59:04.177Z,13.15
2017-11-30T14:01:31.613Z,8.98
2017-11-30T14:03:59.070Z,9.20
2017-11-30T14:06:26.523Z,9.73
2017-11-30T14:08:53.977Z,9.70
2017-11-30T14:11:21.430Z,10.30
2017-11-30T14:13:48.897Z,9.27
2017-11-30T14:16:16.366Z,8.23
2017-11-30T14:18:43.822Z,7.93
2017-11-30T14:21:11.385Z,10.25
2017-11-30T14:23:38.947Z,7.87
2017-11-30T14:26:06.397Z,10.98
2017-11-30T14:28:33.842Z,8.35
2017-11-30T14:31:01.292Z,6.80
2017-11-30T14:33:28.750Z,9.10
2017-11-30T14:35:56.202Z,6.85
2017-11-30T14:38:23.653Z,7.00
2017-11-30T14:40:51.138Z,7.35
2017-11-30T14:43:18.595Z,6.50
2017-11-30T14:45:46.154Z,7.15
2017-11-30T14:48:13.598Z,7.12
2017-11-30T14:50:41.049Z,6.80
2017-11-30T14:53:08.522Z,6.65
2017-11-30T14:55:36.039Z,5.85
2017-11-30T14:58:03.425Z,7.35
2017-11-30T15:00:30.895Z,6.32
2017-11-30T15:02:58.333Z,6.70
2017-11-30T15:05:25.789Z,6.57
2017-11-30T15:07:53.237Z,5.75
2017-11-30T15:10:20.694Z,5.40
2017-11-30T15:12:48.126Z,5.85
2017-11-30T15:15:16.337Z,6.55
2017-11-30T15:17:43.805Z,6.12
2017-11-30T15:20:11.257Z,6.62
2017-11-30T15:22:38.702Z,7.20
2017-11-30T15:25:06.161Z,6.53
2017-11-30T15:27:33.604Z,6.97
2017-11-30T15:30:01.071Z,7.30
2017-11-30T15:32:28.552Z,7.40
2017-11-30T15:34:55.989Z,7.37
2017-11-30T15:37:23.448Z,8.20
2017-11-30T15:39:50.888Z,7.80
2017-11-30T15:42:18.348Z,8.05
2017-11-30T15:44:45.792Z,6.78
2017-11-30T15:47:13.249Z,6.65
2017-11-30T15:49:40.746Z,6.95
2017-11-30T15:52:08.197Z,7.72
2017-11-30T15:54:35.646Z,8.60
2017-11-30T15:57:03.106Z,7.32
2017-11-30T15:59:30.550Z,7.37
2017-11-30T16:01:58.001Z,7.10
2017-11-30T16:04:25.485Z,9.05
2017-11-30T16:06:53.041Z,9.02
2017-11-30T16:09:20.495Z,10.25
2017-11-30T16:11:47.950Z,13.43
2017-11-30T16:14:15.420Z,14.10
2017-11-30T16:16:42.979Z,10.57
2017-11-30T16:19:10.418Z,7.82
2017-11-30T16:21:37.877Z,6.25
2017-11-30T16:24:05.317Z,6.60
2017-11-30T16:26:32.763Z,8.40
2017-11-30T16:29:00.263Z,9.18
2017-11-30T16:31:27.823Z,12.30
2017-11-30T16:33:55.269Z,11.60
2017-11-30T16:36:22.729Z,10.63
2017-11-30T16:38:50.169Z,9.15
2017-11-30T16:41:17.618Z,9.63
2017-11-30T16:43:45.074Z,8.55
2017-11-30T16:46:12.524Z,9.05
2017-11-30T16:48:39.972Z,7.82
2017-11-30T16:51:07.417Z,9.35
2017-11-30T16:53:35.643Z,9.40
2017-11-30T16:56:08.801Z,8.23
2017-11-30T16:58:37.014Z,6.50
2017-11-30T17:01:04.454Z,8.68
2017-11-30T17:03:31.913Z,6.43
2017-11-30T17:05:59.349Z,7.00
2017-11-30T17:08:26.810Z,6.93
2017-11-30T17:10:54.293Z,6.72
2017-11-30T17:13:21.754Z,6.12
2017-11-30T17:15:49.188Z,4.97
2017-11-30T17:18:16.645Z,4.47
2017-11-30T17:20:44.116Z,4.03
2017-11-30T17:23:11.569Z,3.72
2017-11-30T17:25:39.013Z,4.85
2017-11-30T17:28:06.466Z,4.30
2017-11-30T17:30:33.913Z,4.70
2017-11-30T17:33:01.406Z,3.72
2017-11-30T17:35:28.853Z,3.95
2017-11-30T17:37:56.309Z,4.12
2017-11-30T17:40:23.754Z,3.58
2017-11-30T17:42:51.209Z,4.70
2017-11-30T17:45:19.633Z,4.45
2017-11-30T17:47:47.883Z,4.80
2017-11-30T17:50:15.441Z,3.90
2017-11-30T17:52:43.001Z,3.85
2017-11-30T17:55:10.450Z,7.57
2017-11-30T17:57:37.889Z,4.87
2017-11-30T18:00:05.349Z,4.82
2017-11-30T18:02:33.393Z,4.75
2017-11-30T18:05:00.910Z,5.32
2017-11-30T18:07:28.464Z,4.30
2017-11-30T18:09:56.935Z,7.95
2017-11-30T18:12:24.412Z,11.25
2017-11-30T18:14:51.865Z,12.00
2017-11-30T18:17:22.077Z,16.90
2017-11-30T18:19:51.647Z,10.07
2017-11-30T18:22:19.421Z,10.65
2017-11-30T18:24:46.878Z,10.10
2017-11-30T18:27:14.333Z,10.55
2017-11-30T18:29:41.800Z,7.93
2017-11-30T18:32:11.480Z,8.00
2017-11-30T18:34:38.933Z,7.20
2017-11-30T18:37:06.377Z,9.95
2017-11-30T18:39:34.602Z,7.57
2017-11-30T18:42:02.419Z,9.70
2017-11-30T18:44:30.642Z,8.55
2017-11-30T18:46:58.695Z,10.50
2017-11-30T18:49:26.152Z,9.27
2017-11-30T18:51:53.604Z,10.02
2017-11-30T18:54:21.052Z,9.18
2017-11-30T18:56:48.500Z,8.73
2017-11-30T18:59:15.958Z,8.90
2017-11-30T19:01:43.404Z,7.90
2017-11-30T19:04:11.654Z,11.20
2017-11-30T19:06:39.101Z,10.77
2017-11-30T19:09:07.533Z,12.23
2017-11-30T19:11:34.980Z,11.50
2017-11-30T19:14:03.210Z,11.65
2017-11-30T19:16:30.662Z,11.63
2017-11-30T19:18:58.114Z,11.65
2017-11-30T19:21:25.569Z,9.73
2017-11-30T19:23:53.023Z,8.85
2017-11-30T19:26:20.481Z,9.43
2017-11-30T19:28:48.648Z,8.40
2017-11-30T19:31:16.109Z,7.95
2017-11-30T19:33:43.554Z,7.60
2017-11-30T19:36:11.007Z,7.75
2017-11-30T19:38:38.461Z,9.07
2017-11-30T19:41:05.911Z,9.82
2017-11-30T19:43:33.354Z,9.45
2017-11-30T19:46:00.806Z,9.38
2017-11-30T19:48:29.017Z,10.20
2017-11-30T19:50:56.473Z,7.82
2017-11-30T19:53:23.925Z,8.50
2017-11-30T19:55:51.380Z,8.85
2017-11-30T19:58:18.838Z,10.52
2017-11-30T20:00:46.289Z,7.70
2017-11-30T20:03:13.742Z,9.63
2017-11-30T20:05:41.237Z,17.33
2017-11-30T20:08:08.684Z,11.25
2017-11-30T20:10:36.229Z,9.68
2017-11-30T20:13:03.677Z,10.35
2017-11-30T20:15:31.132Z,8.55
2017-11-30T20:17:58.579Z,8.07
2017-11-30T20:20:26.025Z,7.18
2017-11-30T20:22:56.189Z,9.88
2017-11-30T20:25:24.652Z,7.37
2017-11-30T20:27:52.097Z,6.30
2017-11-30T20:30:19.591Z,6.25
2017-11-30T20:32:47.308Z,7.10
2017-11-30T20:35:14.754Z,6.75
2017-11-30T20:37:42.973Z,6.18
2017-11-30T20:40:10.417Z,6.45
2017-11-30T20:42:37.864Z,5.70
2017-11-30T20:45:05.325Z,6.10
2017-11-30T20:47:32.778Z,4.53
2017-11-30T20:50:00.226Z,5.47
2017-11-30T20:52:27.730Z,6.43
2017-11-30T20:54:55.122Z,6.30
2017-11-30T20:57:23.344Z,6.00
2017-11-30T20:59:50.879Z,9.40
2017-11-30T21:02:18.321Z,11.27
2017-11-30T21:04:46.802Z,10.48
2017-11-30T21:07:15.191Z,9.20
2017-11-30T21:09:44.003Z,10.35
2017-11-30T21:12:17.121Z,9.90
2017-11-30T21:14:44.569Z,10.43
2017-11-30T21:17:13.032Z,11.90
2017-11-30T21:19:41.520Z,11.00
2017-11-30T21:22:17.181Z,10.98
2017-11-30T21:24:46.133Z,10.10
2017-11-30T21:27:17.237Z,11.30
2017-11-30T21:29:49.581Z,12.15
2017-11-30T21:32:19.385Z,11.80
2017-11-30T21:34:51.394Z,9.55
2017-11-30T21:37:19.609Z,12.40
2017-11-30T21:39:47.056Z,12.93
2017-11-30T21:42:14.525Z,11.55
2017-11-30T21:44:41.998Z,10.20
2017-11-30T21:47:10.565Z,8.43
2017-11-30T21:49:39.839Z,7.28
2017-11-30T21:52:09.145Z,7.95
2017-11-30T21:54:37.878Z,6.55
2017-11-30T21:57:07.357Z,6.18
2017-11-30T22:02:41.605Z,7.43
2017-11-30T22:05:12.361Z,7.72
2017-11-30T22:07:40.609Z,7.93
2017-11-30T22:10:08.597Z,8.45
2017-11-30T22:12:37.606Z,7.65
2017-11-30T22:15:06.537Z,7.93
2017-11-30T22:17:33.990Z,6.90
2017-11-30T22:20:01.578Z,7.47
2017-11-30T22:22:34.181Z,7.90
2017-11-30T22:25:03.502Z,8.63
2017-11-30T22:27:31.740Z,8.60
2017-11-30T22:30:01.082Z,8.95
2017-11-30T22:32:28.532Z,9.50
2017-11-30T22:34:59.590Z,9.48
2017-11-30T22:37:27.572Z,11.38
2017-11-30T22:39:55.881Z,12.48
2017-11-30T22:42:29.164Z,8.75
2017-11-30T22:44:57.000Z,8.10
2017-11-30T22:47:24.436Z,9.05
2017-11-30T22:49:54.687Z,9.20
2017-11-30T22:52:22.125Z,9.98
2017-11-30T22:54:51.521Z,11.77
2017-11-30T22:57:19.489Z,9.43
2017-11-30T22:59:49.997Z,9.63
2017-11-30T23:02:17.601Z,9.90
2017-11-30T23:04:45.157Z,7.75
2017-11-30T23:07:13.818Z,7.85
2017-11-30T23:09:42.041Z,8.38
2017-11-30T23:12:09.493Z,7.30
2017-11-30T23:14:37.345Z,7.30
2017-11-30T23:17:04.780Z,7.43
2017-11-30T23:19:32.234Z,7.62
2017-11-30T23:22:05.262Z,7.20
2017-11-30T23:24:37.445Z,7.50
2017-11-30T23:27:04.994Z,6.78
2017-11-30T23:29:33.462Z,7.90
2017-11-30T23:32:00.902Z,8.45
2017-11-30T23:34:29.496Z,7.55
2017-11-30T23:36:57.542Z,9.52
2017-11-30T23:39:24.988Z,9.05
2017-11-30T23:41:55.394Z,8.52
2017-11-30T23:44:27.609Z,12.00
2017-11-30T23:46:55.357Z,9.57
2017-11-30T23:49:23.717Z,7.97
2017-11-30T23:51:53.504Z,7.50
2017-11-30T23:54:22.640Z,7.60
2017-11-30T23:56:51.894Z,7.53
2017-11-30T23:59:21.256Z,6.55
